Fort Simpson Airport
CYFS : rendu visible

Aérodrome :











RETROUVEZ-NOUS SUR...

 
LOGIN :

S'inscrire | Disclaimer

   EN    FR    IT 

 









Légende :    VFR   VFR Marginal   IFR   IFR Intensif   IFR Très Intensif
Visi : 
Plafond : 
>= 8 km
>= 3000ft
5 à 8 km
1000 à 3000 ft
1500m à 5 km
500 à 1000 ft
800 à 1500m
200 à 500 ft
< 800m
< 200 ft
Symboles :   Orages  Brouillard  Fortes neiges  Fortes précipitations  Vent > 20 kt






- Altitude de l'aérodrome : 555 ft
- Code IATA : YFS


CYFS - Fort Simpson

DERNIER METAR :
  • 011500Z 13003KT 060V160 15SM BKN110 OVC130 M18/M24 A3074 RMK AC7AC1 SLP430

METARs EXPIRÉS :
  • 011400Z 13003KT 090V160 15SM BKN110 BKN140 M19/M25 A3073 RMK AC5AC2 SLP429
  • 011300Z VRB02KT 15SM SCT120 BKN140 M20/M26 A3073 RMK AC3AC4 SLP428

TAF TAF CYFS
Valide du 01 à 12h jusqu'au 02 à 00h UTC


011138Z 0112/0124 12006KT P6SM SCT100 BKN170 RMK NXT FCST BY 011800Z



MET'MAP, la Météo Aéronautique d'un coup d'oeil ! - Copyright ORBIFLY Décembre 2007 - Disclaimer

ORBIFLY MET'MAP TEAM :

Programmation & Développement : Alexandra Zaïnal
Sur une idée originale de : Baudouin d'Aumeries
Assistance à la programmation : Marc-Olivier Méhu
Soutien technique & logistique : Manuel Goepfert

Contact : metmap@orbifly.com




SOURCES & CREDITS :

   NOAA       Earth
Advisory